Terminal Aerodrome Forecast
Issued by NWS Billings, MT

Home | Current Version | Previous Version | Text Only | Print | Product List | Glossary On
Versions: 1 2 3 4 5 6 7 8 9 10 11 12 13 14 15 16
000
FTUS45 KBYZ 260439 AAB
TAFBIL
TAF AMD
KBIL 260439Z 2605/2624 36020G32KT P6SM TS SCT090CB BKN150
     FM260600 02016G25KT P6SM VCTS SCT090CB BKN150
     FM260700 VRB06KT P6SM SCT120
     FM262100 VRB06KT P6SM VCTS SCT100CB BKN150=

USA.gov is the U.S. government's official web portal to all federal, state and local government web resources and services.